Catàleg de serveis del Meteocat
Campanya meteocatpedra

Dades de l'estació automàtica Monells

?
?
Resum diari 21:30 TU
Dades diàries de l'estació meteorològica
Temperatura mitjana 13.1 °C
Temperatura màxima 16.7 °C 11:12 TU
Temperatura mínima 9.1 °C 4:01 TU
Humitat relativa mitjana 86%
Precipitació acumulada 0.0 mm
Ratxa màxima del vent (2 m) 20.9 km/h - 30º 11:36 TU
Irradiació solar global 10.9 MJ/m2

El tram horari està expressat en Temps Universal (TU). Cal sumar una hora en horari d'hivern i dues en horari d'estiu per passar a l'hora oficial.

Monells

Metadades estació meteorol´gica
Municipi Cruïlles, Monells i Sant Sadurní de l'Heura
Comarca Baix Empordà
Altitud 60 m
Data alta 04.03.1998
Estat actual Operativa
Dades de període
Període
TU
TM
°C
TX
°C
TN
°C
HRM
%
PPT
mm
VVM (2 m)
km/h
DVM (2 m)
graus
VVX (2 m)
km/h
RS
W/m2
00:00 - 00:30 12.0 12.7 11.4 94 0.0 0.4 239 2.2 0
00:30 - 01:00 11.2 11.4 11.0 96 0.0 0.0 197 2.2 0
01:00 - 01:30 11.1 11.2 11.0 97 0.0 0.4 219 2.2 0
01:30 - 02:00 10.6 10.9 10.5 97 0.0 0.7 227 2.5 0
02:00 - 02:30 10.3 10.5 9.9 97 0.0 1.8 204 3.2 0
02:30 - 03:00 10.0 10.1 9.9 97 0.0 1.8 209 5.0 0
03:00 - 03:30 10.0 10.1 9.7 97 0.0 1.1 236 3.6 0
03:30 - 04:00 9.7 10.1 9.2 98 0.0 1.1 276 4.0 0
04:00 - 04:30 9.3 9.4 9.1 98 0.0 1.1 250 4.0 0
04:30 - 05:00 9.6 9.7 9.3 98 0.0 1.1 213 2.9 0
05:00 - 05:30 9.4 9.6 9.3 98 0.0 0.0 222 2.5 9
05:30 - 06:00 9.7 10.0 9.6 98 0.0 0.7 205 2.9 39
06:00 - 06:30 10.4 11.1 10.0 98 0.0 0.4 206 2.5 106
06:30 - 07:00 11.9 12.8 11.1 97 0.0 0.4 197 2.2 174
07:00 - 07:30 13.2 13.5 12.7 93 0.0 3.6 50 11.2 174
07:30 - 08:00 13.8 14.0 13.5 89 0.0 4.7 14 9.7 214
08:00 - 08:30 14.4 14.6 14.0 84 0.0 4.3 13 9.7 258
08:30 - 09:00 14.8 15.1 14.6 80 0.0 5.4 40 10.4 286
09:00 - 09:30 15.1 15.3 14.8 79 0.0 5.4 34 13.0 290
09:30 - 10:00 15.5 15.7 15.2 75 0.0 6.5 36 12.2 368
10:00 - 10:30 15.5 15.8 15.3 78 0.0 8.6 41 14.8 345
10:30 - 11:00 15.8 16.0 15.6 77 0.0 9.4 26 17.6 433
11:00 - 11:30 16.5 16.7 16.0 74 0.0 9.7 39 18.7 552
11:30 - 12:00 16.5 16.7 16.3 72 0.0 9.0 44 20.9 394
12:00 - 12:30 16.2 16.5 15.8 74 0.0 6.1 51 17.3 294
12:30 - 13:00 15.7 16.0 15.4 76 0.0 6.8 49 18.4 249
13:00 - 13:30 15.6 16.0 15.4 75 0.0 7.2 51 17.3 310
13:30 - 14:00 16.1 16.3 15.5 75 0.0 4.3 61 15.5 283
14:00 - 14:30 15.6 15.8 15.5 77 0.0 6.1 47 13.0 277
14:30 - 15:00 15.2 15.5 15.0 78 0.0 9.0 36 15.5 200
15:00 - 15:30 15.2 15.3 15.1 79 0.0 9.4 40 18.7 202
15:30 - 16:00 15.1 15.3 15.0 77 0.0 6.8 51 16.9 166
16:00 - 16:30 15.3 15.5 15.1 78 0.0 8.3 40 20.9 218
16:30 - 17:00 14.9 15.1 14.8 81 0.0 7.6 36 13.7 118
17:00 - 17:30 14.6 14.8 14.4 82 0.0 6.8 28 13.0 82
17:30 - 18:00 14.1 14.4 13.7 84 0.0 6.5 18 14.4 48
18:00 - 18:30 13.3 13.7 13.0 86 0.0 4.7 17 9.4 12
18:30 - 19:00 12.9 13.1 12.6 86 0.0 5.0 23 14.0 0
19:00 - 19:30 12.6 12.7 12.5 86 0.0 4.7 10 11.5 0
19:30 - 20:00 12.5 12.9 11.9 85 0.0 2.2 20 5.0 0
20:00 - 20:30 11.8 12.0 11.6 86 0.0 2.9 16 6.5 0
20:30 - 21:00 11.8 12.0 11.7 86 0.0 2.5 10 6.5 0
21:00 - 21:30 11.8 12.1 11.5 85 0.0 3.2 2 8.3 0
21:30 - 22:00 11.1 11.7 10.3 87 0.0 1.8 282 5.8 0

Les dades en taronja només han passat un control de qualitat automàtic. Resta pendent la seva validació definitiva.